createdAt,value
2018-07-27T00:00:57.000Z,21.60
2018-07-27T00:03:27.036Z,21.60
2018-07-27T00:08:26.618Z,21.60
2018-07-27T00:10:56.601Z,21.50
2018-07-27T00:13:26.652Z,21.50
2018-07-27T00:15:56.696Z,21.50
2018-07-27T00:18:26.787Z,21.50
2018-07-27T00:20:56.816Z,21.50
2018-07-27T00:23:26.903Z,21.50
2018-07-27T00:25:56.952Z,21.50
2018-07-27T00:28:27.008Z,21.50
2018-07-27T00:30:57.047Z,21.50
2018-07-27T00:33:27.115Z,21.50
2018-07-27T00:35:57.163Z,21.40
2018-07-27T00:40:56.720Z,21.40
2018-07-27T00:43:26.748Z,21.40
2018-07-27T00:45:56.820Z,21.40
2018-07-27T00:48:26.847Z,21.40
2018-07-27T00:50:57.043Z,21.50
2018-07-27T00:53:27.103Z,21.50
2018-07-27T00:55:57.344Z,21.50
2018-07-27T00:58:27.563Z,21.40
2018-07-27T01:00:57.655Z,21.30
2018-07-27T01:03:27.685Z,21.40
2018-07-27T01:05:57.724Z,21.40
2018-07-27T01:08:27.830Z,21.40
2018-07-27T01:10:57.877Z,21.30
2018-07-27T01:13:27.995Z,21.30
2018-07-27T01:15:58.063Z,21.30
2018-07-27T01:18:28.143Z,21.20
2018-07-27T01:20:58.272Z,21.20
2018-07-27T01:23:28.316Z,21.20
2018-07-27T01:25:58.400Z,21.20
2018-07-27T01:28:28.488Z,21.20
2018-07-27T01:30:58.520Z,21.10
2018-07-27T01:33:28.589Z,21.10
2018-07-27T01:35:58.596Z,21.10
2018-07-27T01:38:28.704Z,21.00
2018-07-27T01:40:58.736Z,21.00
2018-07-27T01:43:28.836Z,21.10
2018-07-27T01:45:58.888Z,21.10
2018-07-27T01:48:28.978Z,21.10
2018-07-27T01:50:59.068Z,21.00
2018-07-27T01:53:29.196Z,21.00
2018-07-27T01:55:59.308Z,21.00
2018-07-27T01:58:29.393Z,21.00
2018-07-27T02:00:59.544Z,20.90
2018-07-27T02:03:29.648Z,20.90
2018-07-27T02:05:59.747Z,20.90
2018-07-27T02:08:29.796Z,20.90
2018-07-27T02:10:59.847Z,20.90
2018-07-27T02:13:29.847Z,20.80
2018-07-27T02:15:59.960Z,20.80
2018-07-27T02:18:30.037Z,20.80
2018-07-27T02:21:00.076Z,20.80
2018-07-27T02:23:30.183Z,20.80
2018-07-27T02:26:00.292Z,20.80
2018-07-27T02:28:30.300Z,20.70
2018-07-27T02:31:00.359Z,20.70
2018-07-27T02:33:30.376Z,20.70
2018-07-27T02:36:00.477Z,20.70
2018-07-27T02:38:30.528Z,20.70
2018-07-27T02:41:00.601Z,20.70
2018-07-27T02:43:30.649Z,20.70
2018-07-27T02:46:00.716Z,20.60
2018-07-27T02:48:30.832Z,20.60
2018-07-27T02:51:00.893Z,20.50
2018-07-27T02:53:31.150Z,20.60
2018-07-27T02:58:30.708Z,20.50
2018-07-27T03:01:00.796Z,20.50
2018-07-27T03:03:30.852Z,20.50
2018-07-27T03:06:00.808Z,20.50
2018-07-27T03:08:30.852Z,20.50
2018-07-27T03:11:00.892Z,20.60
2018-07-27T03:13:31.053Z,20.60
2018-07-27T03:16:01.119Z,20.60
2018-07-27T03:18:31.252Z,20.60
2018-07-27T03:21:01.340Z,20.60
2018-07-27T03:23:31.336Z,20.60
2018-07-27T03:26:01.732Z,20.60
2018-07-27T03:28:31.811Z,20.60
2018-07-27T03:31:01.895Z,20.60
2018-07-27T03:33:31.946Z,20.70
2018-07-27T03:36:02.028Z,20.70
2018-07-27T03:38:32.172Z,20.80
2018-07-27T03:41:02.228Z,20.80
2018-07-27T03:43:32.284Z,20.80
2018-07-27T03:46:02.307Z,20.90
2018-07-27T03:48:32.380Z,20.90
2018-07-27T03:51:02.440Z,20.90
2018-07-27T03:53:32.510Z,20.90
2018-07-27T03:56:02.591Z,21.00
2018-07-27T03:58:32.636Z,21.00
2018-07-27T04:01:02.687Z,21.00
2018-07-27T04:03:32.735Z,21.10
2018-07-27T04:06:02.784Z,21.10
2018-07-27T04:08:32.890Z,21.10
2018-07-27T04:11:02.992Z,21.20
2018-07-27T04:13:33.044Z,21.20
2018-07-27T04:16:03.089Z,21.20
2018-07-27T04:18:33.147Z,21.30
2018-07-27T04:21:03.256Z,21.30
2018-07-27T04:23:33.318Z,21.30
2018-07-27T04:26:03.448Z,21.30
2018-07-27T04:28:33.457Z,21.40
2018-07-27T04:31:03.533Z,21.40
2018-07-27T04:33:33.616Z,21.50
2018-07-27T04:36:03.641Z,21.50
2018-07-27T04:38:33.692Z,21.50
2018-07-27T04:41:03.800Z,21.60
2018-07-27T04:43:33.984Z,21.60
2018-07-27T04:46:04.120Z,21.70
2018-07-27T04:48:34.163Z,21.80
2018-07-27T04:51:04.312Z,21.80
2018-07-27T04:53:34.336Z,21.80
2018-07-27T04:56:05.044Z,21.90
2018-07-27T04:58:35.148Z,22.00
2018-07-27T05:01:05.213Z,22.00
2018-07-27T05:03:35.299Z,22.10
2018-07-27T05:06:05.348Z,22.10
2018-07-27T05:08:39.596Z,22.20
2018-07-27T05:11:10.292Z,22.20
2018-07-27T05:13:40.352Z,22.30
2018-07-27T05:16:10.436Z,22.30
2018-07-27T05:18:40.443Z,22.40
2018-07-27T05:21:10.496Z,22.40
2018-07-27T05:23:40.560Z,22.40
2018-07-27T05:26:10.592Z,22.50
2018-07-27T05:28:40.809Z,22.50
2018-07-27T05:31:10.848Z,22.60
2018-07-27T05:33:40.891Z,22.60
2018-07-27T05:36:10.979Z,22.70
2018-07-27T05:38:41.039Z,22.70
2018-07-27T05:41:11.126Z,22.80
2018-07-27T05:43:41.160Z,22.80
2018-07-27T05:46:11.204Z,22.90
2018-07-27T05:48:41.320Z,23.00
2018-07-27T05:53:40.812Z,23.10
2018-07-27T05:58:40.316Z,23.20
2018-07-27T06:01:10.431Z,23.40
2018-07-27T06:03:40.464Z,23.50
2018-07-27T06:06:10.812Z,23.60
2018-07-27T06:08:40.944Z,23.80
2018-07-27T06:11:11.061Z,24.00
2018-07-27T06:13:41.192Z,24.10
2018-07-27T06:16:11.538Z,24.30
2018-07-27T06:18:41.616Z,24.40
2018-07-27T06:21:11.740Z,24.60
2018-07-27T06:23:41.832Z,24.70
2018-07-27T06:26:11.995Z,24.90
2018-07-27T06:28:42.044Z,25.10
2018-07-27T06:31:12.160Z,25.20
2018-07-27T06:33:42.383Z,25.40
2018-07-27T06:36:12.452Z,25.50
2018-07-27T06:41:12.004Z,25.80
2018-07-27T06:43:42.056Z,25.90
2018-07-27T06:46:12.096Z,26.10
2018-07-27T06:48:42.183Z,26.30
2018-07-27T06:51:12.231Z,26.40
2018-07-27T06:53:42.476Z,26.40
2018-07-27T06:56:12.548Z,26.60
2018-07-27T07:01:12.044Z,26.90
2018-07-27T07:03:42.132Z,27.00
2018-07-27T07:08:41.828Z,27.20
2018-07-27T07:11:11.896Z,27.30
2018-07-27T07:13:41.927Z,27.40
2018-07-27T07:16:12.083Z,27.50
2018-07-27T07:18:42.152Z,27.70
2018-07-27T07:21:12.224Z,27.80
2018-07-27T07:23:42.283Z,28.00
2018-07-27T07:26:12.555Z,28.20
2018-07-27T07:28:42.483Z,28.20
2018-07-27T07:31:12.580Z,28.40
2018-07-27T07:33:42.632Z,28.50
2018-07-27T07:36:12.691Z,28.50
2018-07-27T07:38:42.756Z,28.50
2018-07-27T07:41:12.819Z,28.60
2018-07-27T07:43:42.959Z,28.70
2018-07-27T07:48:42.466Z,28.50
2018-07-27T07:51:12.616Z,28.30
2018-07-27T07:53:43.676Z,28.40
2018-07-27T07:56:13.784Z,28.40
2018-07-27T07:58:43.967Z,28.50
2018-07-27T08:01:14.008Z,28.60
2018-07-27T08:03:44.084Z,28.60
2018-07-27T08:06:14.156Z,28.70
2018-07-27T08:08:44.231Z,28.80
2018-07-27T08:11:14.361Z,28.80
2018-07-27T08:13:44.468Z,28.90
2018-07-27T08:16:15.169Z,28.90
2018-07-27T08:18:45.968Z,28.70
2018-07-27T08:21:20.884Z,28.90
2018-07-27T08:23:52.560Z,29.00
2018-07-27T08:26:44.153Z,29.20
2018-07-27T08:29:16.439Z,29.20
2018-07-27T08:31:47.645Z,29.40
2018-07-27T08:34:18.371Z,29.70
2018-07-27T08:36:48.980Z,29.80
2018-07-27T08:41:50.505Z,30.10
2018-07-27T08:44:22.055Z,30.20
2018-07-27T08:46:52.348Z,30.30
2018-07-27T08:49:22.363Z,30.50
2018-07-27T08:51:53.427Z,30.60
2018-07-27T08:54:23.512Z,30.40
2018-07-27T08:56:53.626Z,30.50
2018-07-27T08:59:23.694Z,30.70
2018-07-27T09:01:53.833Z,30.60
2018-07-27T09:04:23.911Z,30.70
2018-07-27T09:06:54.111Z,30.70
2018-07-27T09:09:24.140Z,30.70
2018-07-27T09:11:54.208Z,30.90
2018-07-27T09:14:24.271Z,31.00
2018-07-27T09:16:54.336Z,31.20
2018-07-27T09:19:24.452Z,31.10
2018-07-27T09:21:54.492Z,31.20
2018-07-27T09:24:24.690Z,31.30
2018-07-27T09:26:54.668Z,31.40
2018-07-27T09:29:24.732Z,31.60
2018-07-27T09:31:54.884Z,31.30
2018-07-27T09:34:24.953Z,31.60
2018-07-27T09:36:55.046Z,31.80
2018-07-27T09:39:25.111Z,31.80
2018-07-27T09:41:55.196Z,31.90
2018-07-27T09:44:25.240Z,32.00
2018-07-27T09:46:55.336Z,32.20
2018-07-27T09:49:25.391Z,32.50
2018-07-27T09:51:55.510Z,32.60
2018-07-27T09:54:25.568Z,32.50
2018-07-27T09:56:55.644Z,32.40
2018-07-27T09:59:25.746Z,32.60
2018-07-27T10:04:25.344Z,32.60
2018-07-27T10:06:55.384Z,32.90
2018-07-27T10:09:25.459Z,32.90
2018-07-27T10:11:55.515Z,33.10
2018-07-27T10:14:25.593Z,33.10
2018-07-27T10:16:55.592Z,33.20
2018-07-27T10:19:25.703Z,33.30
2018-07-27T10:24:25.288Z,33.30
2018-07-27T10:26:55.341Z,33.50
2018-07-27T10:29:25.388Z,33.40
2018-07-27T10:31:55.453Z,33.40
2018-07-27T10:34:27.616Z,33.70
2018-07-27T10:36:58.484Z,33.70
2018-07-27T10:39:28.552Z,33.50
2018-07-27T10:41:58.603Z,33.40
2018-07-27T10:44:28.656Z,33.50
2018-07-27T10:46:58.733Z,33.50
2018-07-27T10:49:28.755Z,33.40
2018-07-27T10:51:58.895Z,33.40
2018-07-27T10:54:28.975Z,33.30
2018-07-27T10:56:59.232Z,33.50
2018-07-27T10:59:29.299Z,33.50
2018-07-27T11:01:59.380Z,33.60
2018-07-27T11:04:29.460Z,33.70
2018-07-27T11:06:59.528Z,33.80
2018-07-27T11:09:29.606Z,33.90
2018-07-27T11:11:59.644Z,33.80
2018-07-27T11:14:29.708Z,34.00
2018-07-27T11:19:29.248Z,34.00
2018-07-27T11:21:59.364Z,34.00
2018-07-27T11:24:29.416Z,34.10
2018-07-27T11:26:59.572Z,34.20
2018-07-27T11:29:29.660Z,34.10
2018-07-27T11:31:59.790Z,34.20
2018-07-27T11:34:29.928Z,34.20
2018-07-27T11:36:59.956Z,34.20
2018-07-27T11:39:30.033Z,34.10
2018-07-27T11:42:00.108Z,34.30
2018-07-27T11:44:30.168Z,34.30
2018-07-27T11:47:00.236Z,34.30
2018-07-27T11:49:30.315Z,34.20
2018-07-27T11:52:00.339Z,34.30
2018-07-27T11:54:30.397Z,34.30
2018-07-27T11:57:00.471Z,34.20
2018-07-27T11:59:30.580Z,34.20
2018-07-27T12:02:00.580Z,34.00
2018-07-27T12:04:30.692Z,34.00
2018-07-27T12:07:01.037Z,34.00
2018-07-27T12:09:31.048Z,34.00
2018-07-27T12:12:01.064Z,33.90
2018-07-27T12:14:31.222Z,34.10
2018-07-27T12:17:01.222Z,34.30
2018-07-27T12:19:31.283Z,34.20
2018-07-27T12:22:01.351Z,34.30
2018-07-27T12:24:31.420Z,34.20
2018-07-27T12:27:01.496Z,34.00
2018-07-27T12:29:31.559Z,34.10
2018-07-27T12:32:01.624Z,34.20
2018-07-27T12:34:31.704Z,34.40
2018-07-27T12:37:01.764Z,34.30
2018-07-27T12:39:31.837Z,34.40
2018-07-27T12:42:01.880Z,34.30
2018-07-27T12:44:31.976Z,34.50
2018-07-27T12:47:02.024Z,34.50
2018-07-27T12:49:32.127Z,34.50
2018-07-27T12:52:02.156Z,34.50
2018-07-27T12:54:32.212Z,34.40
2018-07-27T12:57:02.264Z,34.40
2018-07-27T12:59:32.380Z,34.50
2018-07-27T13:02:02.412Z,34.50
2018-07-27T13:04:32.456Z,34.40
2018-07-27T13:09:31.964Z,34.10
2018-07-27T13:12:02.036Z,33.80
2018-07-27T13:17:02.211Z,34.00
2018-07-27T13:19:32.281Z,33.90
2018-07-27T13:22:02.391Z,33.70
2018-07-27T13:24:58.309Z,33.70
2018-07-27T13:27:02.497Z,33.90
2018-07-27T13:29:32.579Z,33.80
2018-07-27T13:32:02.638Z,33.60
2018-07-27T13:37:38.536Z,33.40
2018-07-27T13:40:08.629Z,33.50
2018-07-27T13:42:38.703Z,33.50
2018-07-27T13:45:08.791Z,33.50
2018-07-27T13:47:38.931Z,33.30
2018-07-27T13:50:08.968Z,33.50
2018-07-27T13:52:39.020Z,33.40
2018-07-27T13:55:09.161Z,33.40
2018-07-27T13:57:39.328Z,33.40
2018-07-27T14:00:09.420Z,33.40
2018-07-27T14:02:39.477Z,33.50
2018-07-27T14:05:09.544Z,33.50
2018-07-27T14:07:39.635Z,33.50
2018-07-27T14:10:09.640Z,33.40
2018-07-27T14:12:39.720Z,33.10
2018-07-27T14:15:09.832Z,33.20
2018-07-27T14:17:39.860Z,33.20
2018-07-27T14:20:09.916Z,32.90
2018-07-27T14:22:39.977Z,32.80
2018-07-27T14:25:10.024Z,32.80
2018-07-27T14:27:40.080Z,32.70
2018-07-27T14:30:10.148Z,32.60
2018-07-27T14:32:40.585Z,32.60
2018-07-27T14:35:10.909Z,32.60
2018-07-27T14:37:41.104Z,32.60
2018-07-27T14:40:11.161Z,32.30
2018-07-27T14:42:41.213Z,32.20
2018-07-27T14:45:11.326Z,32.20
2018-07-27T14:47:41.395Z,32.20
2018-07-27T14:50:11.409Z,32.00
2018-07-27T14:52:41.475Z,31.90
2018-07-27T14:55:11.572Z,31.70
2018-07-27T14:57:41.615Z,31.60
2018-07-27T15:00:11.787Z,31.50
2018-07-27T15:05:11.395Z,31.50
2018-07-27T15:07:41.433Z,31.50
2018-07-27T15:10:11.619Z,31.30
2018-07-27T15:12:41.680Z,31.20
2018-07-27T15:15:11.833Z,31.00
2018-07-27T15:17:41.856Z,31.10
2018-07-27T15:20:11.943Z,31.10
2018-07-27T15:22:42.068Z,31.10
2018-07-27T15:25:12.220Z,31.00
2018-07-27T15:27:42.267Z,31.00
2018-07-27T15:30:12.361Z,31.00
2018-07-27T15:32:48.097Z,30.60
2018-07-27T15:35:23.602Z,30.70
2018-07-27T15:37:59.076Z,30.80
2018-07-27T15:43:09.971Z,30.90
2018-07-27T15:45:45.639Z,30.90
2018-07-27T15:48:21.269Z,30.80
2018-07-27T15:50:56.963Z,30.70
2018-07-27T15:53:32.439Z,30.60
2018-07-27T15:56:07.930Z,30.60
2018-07-27T16:01:18.636Z,30.50
2018-07-27T16:03:54.344Z,30.50
2018-07-27T16:06:29.867Z,30.40
2018-07-27T16:09:07.447Z,30.40
2018-07-27T16:11:43.100Z,30.40
2018-07-27T16:14:18.660Z,30.40
2018-07-27T16:16:54.758Z,30.30
2018-07-27T16:19:31.952Z,30.20
2018-07-27T16:22:07.590Z,30.20
2018-07-27T16:24:43.174Z,30.10
2018-07-27T16:27:18.784Z,30.10
2018-07-27T16:32:29.464Z,30.00
2018-07-27T16:35:05.349Z,30.00
2018-07-27T16:37:41.144Z,29.80
2018-07-27T16:42:52.420Z,29.60
2018-07-27T16:45:28.424Z,29.70
2018-07-27T16:48:04.032Z,29.60
2018-07-27T16:50:39.664Z,29.40
2018-07-27T16:53:15.496Z,29.40
2018-07-27T16:55:51.004Z,29.30
2018-07-27T16:58:26.705Z,29.30
2018-07-27T17:01:02.289Z,29.10
2018-07-27T17:03:37.943Z,29.10
2018-07-27T17:06:13.638Z,29.00
2018-07-27T17:08:49.306Z,29.00
2018-07-27T17:11:24.966Z,28.90
2018-07-27T17:14:00.568Z,28.80
2018-07-27T17:16:36.177Z,28.70
2018-07-27T17:19:11.731Z,28.70
2018-07-27T17:21:47.344Z,28.70
2018-07-27T17:24:22.867Z,28.70
2018-07-27T17:26:58.412Z,28.70
2018-07-27T17:29:34.082Z,28.80
2018-07-27T17:32:09.683Z,28.80
2018-07-27T17:34:39.712Z,28.70
2018-07-27T17:37:15.296Z,28.60
2018-07-27T17:39:45.328Z,28.50
2018-07-27T17:42:15.432Z,28.50
2018-07-27T17:44:45.492Z,28.50
2018-07-27T17:47:15.588Z,28.40
2018-07-27T17:49:45.652Z,28.30
2018-07-27T17:52:15.752Z,28.20
2018-07-27T17:54:45.813Z,28.20
2018-07-27T17:57:15.901Z,28.10
2018-07-27T17:59:46.081Z,28.00
2018-07-27T18:02:16.256Z,27.90
2018-07-27T18:04:46.328Z,27.70
2018-07-27T18:07:16.482Z,27.60
2018-07-27T18:09:46.607Z,27.60
2018-07-27T18:12:16.712Z,27.50
2018-07-27T18:14:46.775Z,27.40
2018-07-27T18:17:16.856Z,27.50
2018-07-27T18:19:46.948Z,27.40
2018-07-27T18:22:17.100Z,27.40
2018-07-27T18:24:47.052Z,27.20
2018-07-27T18:27:17.176Z,27.20
2018-07-27T18:29:47.296Z,27.10
2018-07-27T18:32:17.396Z,27.10
2018-07-27T18:34:47.549Z,27.00
2018-07-27T18:37:17.653Z,27.00
2018-07-27T18:39:47.656Z,26.90
2018-07-27T18:42:17.804Z,26.90
2018-07-27T18:44:47.879Z,26.80
2018-07-27T18:47:18.235Z,26.80
2018-07-27T18:49:48.292Z,26.70
2018-07-27T18:52:18.427Z,26.60
2018-07-27T18:54:48.500Z,26.50
2018-07-27T18:57:18.600Z,26.50
2018-07-27T18:59:48.635Z,26.50
2018-07-27T19:02:19.116Z,26.40
2018-07-27T19:04:49.232Z,26.40
2018-07-27T19:07:19.278Z,26.30
2018-07-27T19:09:49.451Z,26.30
2018-07-27T19:12:19.584Z,26.20
2018-07-27T19:14:49.707Z,26.10
2018-07-27T19:17:19.792Z,26.10
2018-07-27T19:19:49.858Z,26.10
2018-07-27T19:22:20.014Z,26.00
2018-07-27T19:24:50.104Z,26.00
2018-07-27T19:27:20.209Z,25.90
2018-07-27T19:29:50.344Z,25.90
2018-07-27T19:32:20.407Z,25.80
2018-07-27T19:34:50.571Z,25.70
2018-07-27T19:37:20.642Z,25.70
2018-07-27T19:39:50.680Z,25.50
2018-07-27T19:42:20.888Z,25.50
2018-07-27T19:44:50.956Z,25.50
2018-07-27T19:47:21.049Z,25.40
2018-07-27T19:49:51.424Z,25.30
2018-07-27T19:52:21.508Z,25.10
2018-07-27T19:54:51.575Z,25.10
2018-07-27T19:57:21.736Z,25.10
2018-07-27T19:59:51.800Z,25.00
2018-07-27T20:02:21.922Z,25.00
2018-07-27T20:04:52.100Z,24.90
2018-07-27T20:07:22.188Z,24.90
2018-07-27T20:09:52.288Z,24.90
2018-07-27T20:12:22.398Z,24.90
2018-07-27T20:14:52.464Z,24.80
2018-07-27T20:17:22.527Z,24.70
2018-07-27T20:19:52.592Z,24.70
2018-07-27T20:22:22.652Z,24.60
2018-07-27T20:24:52.708Z,24.50
2018-07-27T20:27:22.836Z,24.50
2018-07-27T20:29:53.152Z,24.50
2018-07-27T20:32:23.232Z,24.40
2018-07-27T20:34:53.279Z,24.40
2018-07-27T20:37:23.589Z,24.40
2018-07-27T20:39:53.772Z,24.30
2018-07-27T20:42:23.824Z,24.40
2018-07-27T20:44:53.937Z,24.40
2018-07-27T20:47:23.988Z,24.30
2018-07-27T20:49:54.068Z,24.30
2018-07-27T20:52:24.080Z,24.30
2018-07-27T20:54:54.264Z,24.20
2018-07-27T20:57:24.384Z,24.10
2018-07-27T20:59:54.523Z,24.00
2018-07-27T21:02:24.648Z,24.10
2018-07-27T21:04:54.725Z,24.00
2018-07-27T21:07:24.992Z,23.80
2018-07-27T21:09:55.140Z,23.80
2018-07-27T21:12:25.171Z,23.70
2018-07-27T21:14:55.236Z,23.70
2018-07-27T21:17:25.248Z,23.70
2018-07-27T21:19:55.254Z,23.60
2018-07-27T21:22:25.312Z,23.60
2018-07-27T21:24:55.356Z,23.60
2018-07-27T21:27:25.340Z,23.50
2018-07-27T21:29:55.440Z,23.50
2018-07-27T21:32:25.952Z,23.40
2018-07-27T21:34:56.127Z,23.30
2018-07-27T21:37:26.488Z,23.30
2018-07-27T21:39:56.944Z,23.30
2018-07-27T21:42:27.064Z,23.20
2018-07-27T21:44:57.357Z,23.20
2018-07-27T21:47:27.415Z,23.10
2018-07-27T21:49:57.476Z,23.10
2018-07-27T21:52:27.531Z,23.10
2018-07-27T21:54:57.647Z,23.00
2018-07-27T21:57:27.732Z,23.00
2018-07-27T21:59:57.838Z,22.90
2018-07-27T22:02:27.900Z,22.90
2018-07-27T22:04:57.959Z,22.90
2018-07-27T22:07:27.997Z,22.90
2018-07-27T22:09:58.035Z,22.90
2018-07-27T22:12:28.176Z,22.90
2018-07-27T22:14:58.224Z,22.90
2018-07-27T22:17:28.300Z,22.90
2018-07-27T22:19:58.396Z,22.80
2018-07-27T22:22:28.452Z,22.90
2018-07-27T22:24:58.572Z,22.80
2018-07-27T22:27:28.628Z,22.80
2018-07-27T22:29:58.707Z,22.80
2018-07-27T22:32:28.740Z,22.80
2018-07-27T22:34:58.799Z,22.80
2018-07-27T22:37:28.815Z,22.70
2018-07-27T22:39:58.896Z,22.70
2018-07-27T22:42:29.000Z,22.70
2018-07-27T22:44:59.076Z,22.70
2018-07-27T22:47:29.196Z,22.70
2018-07-27T22:49:59.263Z,22.70
2018-07-27T22:52:33.556Z,22.60
2018-07-27T22:55:03.636Z,22.60
2018-07-27T22:57:33.771Z,22.60
2018-07-27T23:00:03.872Z,22.50
2018-07-27T23:02:33.915Z,22.50
2018-07-27T23:05:04.323Z,22.40
2018-07-27T23:07:34.423Z,22.40
2018-07-27T23:10:05.999Z,22.40
2018-07-27T23:12:36.032Z,22.40
2018-07-27T23:15:07.805Z,22.30
2018-07-27T23:17:37.908Z,22.40
2018-07-27T23:20:11.752Z,22.40
2018-07-27T23:22:42.456Z,22.30
2018-07-27T23:25:12.519Z,22.30
2018-07-27T23:27:42.539Z,22.30
2018-07-27T23:30:13.435Z,22.20
2018-07-27T23:32:43.526Z,22.20
2018-07-27T23:35:13.608Z,22.20
2018-07-27T23:37:43.696Z,22.20
2018-07-27T23:40:13.727Z,22.20
2018-07-27T23:42:43.716Z,22.20
2018-07-27T23:45:13.752Z,22.20
2018-07-27T23:47:43.772Z,22.20
2018-07-27T23:50:13.883Z,22.20
2018-07-27T23:52:44.027Z,22.20
2018-07-27T23:55:14.328Z,22.30
2018-07-27T23:57:44.388Z,22.20
